Time;durP1;ratioP1;P1;durP2;ratioP2;P2;SDS_P1;SDS_P2;PMS_P1;PMS_P2;Temp;Humidity;BMP_temperature;BMP_pressure;BME280_temperature;BME280_humidity;BME280_pressure;Samples;Min_cycle;Max_cycle;Signal;HPM_P1;HPM_P2
2022/10/19 00:00:01;;;;;;;;;;;20.90;99.90;;;;;;4952667;28;19938;-58
2022/10/19 00:02:30;;;;;;;;;;;20.90;99.90;;;;;;4953890;28;19937;-59
2022/10/19 00:04:58;;;;;;;;;;;20.90;99.90;;;;;;4957371;28;19937;-60
2022/10/19 00:07:25;;;;;;;;;;;20.90;99.90;;;;;;4954961;28;20531;-60
2022/10/19 00:09:52;;;;;;;;;;;20.90;99.90;;;;;;4955237;28;19934;-62
2022/10/19 00:12:19;;;;;;;;;;;20.90;99.90;;;;;;4958882;28;19931;-62
2022/10/19 00:14:46;;;;;;;;;;;20.90;99.90;;;;;;4945990;28;19930;-62
2022/10/19 00:17:13;;;;;;;;;;;20.90;99.90;;;;;;4957353;28;19930;-58
2022/10/19 00:19:40;;;;;;;;;;;20.90;99.90;;;;;;4957001;28;19937;-60
2022/10/19 00:22:07;;;;;;;;;;;20.90;99.90;;;;;;4948786;28;20003;-62
2022/10/19 00:24:40;;;;;;;;;;;20.90;99.90;;;;;;4967056;28;20402;-61
2022/10/19 00:27:07;;;;;;;;;;;20.80;99.90;;;;;;4956446;28;19930;-59
2022/10/19 00:29:34;;;;;;;;;;;20.80;99.90;;;;;;4954190;28;19930;-61
2022/10/19 00:32:01;;;;;;;;;;;20.90;99.90;;;;;;4963853;28;20314;-61
2022/10/19 00:34:28;;;;;;;;;;;20.80;99.90;;;;;;4943307;28;19934;-61
2022/10/19 00:36:55;;;;;;;;;;;20.80;99.90;;;;;;4968451;28;19949;-58
2022/10/19 00:39:22;;;;;;;;;;;20.80;99.90;;;;;;4972061;28;19941;-60
2022/10/19 00:41:49;;;;;;;;;;;20.80;99.90;;;;;;4954943;28;19953;-62
2022/10/19 00:44:16;;;;;;;;;;;20.80;99.90;;;;;;4965836;28;19938;-62
2022/10/19 00:46:44;;;;;;;;;;;20.80;99.90;;;;;;4957175;28;20428;-62
2022/10/19 00:49:12;;;;;;;;;;;20.80;99.90;;;;;;4958723;28;19926;-60
2022/10/19 00:51:41;;;;;;;;;;;20.80;99.90;;;;;;4953214;28;19926;-60
2022/10/19 00:54:08;;;;;;;;;;;20.80;99.90;;;;;;4945963;28;19930;-63
2022/10/19 00:56:37;;;;;;;;;;;20.80;99.90;;;;;;4956412;28;19937;-62
2022/10/19 00:59:05;;;;;;;;;;;20.80;99.90;;;;;;4962930;28;19937;-62
2022/10/19 01:01:32;;;;;;;;;;;20.80;99.90;;;;;;4955350;28;20302;-62
2022/10/19 01:04:01;;;;;;;;;;;20.80;99.90;;;;;;4963797;28;19927;-64
2022/10/19 01:06:29;;;;;;;;;;;20.80;99.90;;;;;;4961710;28;20337;-62
2022/10/19 01:08:56;;;;;;;;;;;20.80;99.90;;;;;;4958747;28;19926;-64
2022/10/19 01:11:32;;;;;;;;;;;20.80;99.90;;;;;;4956488;28;19934;-62
2022/10/19 01:14:02;;;;;;;;;;;20.80;99.90;;;;;;4959853;28;20287;-61
2022/10/19 01:16:49;;;;;;;;;;;20.80;99.90;;;;;;4979394;28;19930;-61
2022/10/19 01:19:34;;;;;;;;;;;20.70;99.90;;;;;;4949769;28;19933;-62
2022/10/19 01:22:16;;;;;;;;;;;20.70;99.90;;;;;;4945125;28;19981;-63
2022/10/19 01:24:50;;;;;;;;;;;20.70;99.90;;;;;;4963694;28;19941;-64
2022/10/19 01:27:21;;;;;;;;;;;20.70;99.90;;;;;;4966517;28;19930;-62
2022/10/19 01:30:07;;;;;;;;;;;20.70;99.90;;;;;;4969970;28;20299;-62
2022/10/19 01:32:34;;;;;;;;;;;20.70;99.90;;;;;;4955500;28;19941;-62
2022/10/19 01:35:06;;;;;;;;;;;20.70;99.90;;;;;;4959837;28;19937;-59
2022/10/19 01:37:38;;;;;;;;;;;20.70;99.90;;;;;;4944050;28;19941;-62
2022/10/19 01:40:05;;;;;;;;;;;20.70;99.90;;;;;;4960903;28;19926;-63
2022/10/19 01:42:47;;;;;;;;;;;20.70;99.90;;;;;;4956179;28;20344;-57
2022/10/19 01:45:20;;;;;;;;;;;20.70;99.90;;;;;;4953065;28;19931;-61
2022/10/19 01:47:51;;;;;;;;;;;20.70;99.90;;;;;;4956799;28;19937;-63
2022/10/19 01:50:23;;;;;;;;;;;20.70;99.90;;;;;;4972055;28;19930;-61
2022/10/19 01:52:51;;;;;;;;;;;20.70;99.90;;;;;;4957581;28;19933;-62
2022/10/19 01:55:18;;;;;;;;;;;20.70;99.90;;;;;;4953434;28;19941;-61
2022/10/19 01:57:47;;;;;;;;;;;20.70;99.90;;;;;;4964747;28;19934;-61
2022/10/19 02:00:14;;;;;;;;;;;20.70;99.90;;;;;;4955642;28;19942;-62
2022/10/19 02:02:47;;;;;;;;;;;20.60;99.90;;;;;;4965399;28;19946;-61
2022/10/19 02:05:15;;;;;;;;;;;20.70;99.90;;;;;;4954930;28;19934;-60
2022/10/19 02:07:45;;;;;;;;;;;20.70;99.90;;;;;;4957450;28;19937;-60
2022/10/19 02:10:12;;;;;;;;;;;20.70;99.90;;;;;;4955857;28;19926;-62
2022/10/19 02:12:41;;;;;;;;;;;20.70;99.90;;;;;;4962917;28;19930;-62
2022/10/19 02:15:09;;;;;;;;;;;20.70;99.90;;;;;;4958831;28;19930;-57
2022/10/19 02:17:38;;;;;;;;;;;20.70;99.90;;;;;;4961852;28;20305;-64
2022/10/19 02:20:06;;;;;;;;;;;20.60;99.90;;;;;;4951473;28;19926;-63
2022/10/19 02:22:33;;;;;;;;;;;20.70;99.90;;;;;;4959994;28;19937;-59
2022/10/19 02:25:00;;;;;;;;;;;20.60;99.90;;;;;;4957070;28;19931;-60
2022/10/19 02:27:28;;;;;;;;;;;20.60;99.90;;;;;;4962091;28;20308;-60
2022/10/19 02:29:55;;;;;;;;;;;20.60;99.90;;;;;;4955990;28;20314;-62
2022/10/19 02:32:22;;;;;;;;;;;20.60;99.90;;;;;;4963730;28;20295;-62
2022/10/19 02:34:49;;;;;;;;;;;20.60;99.90;;;;;;4964159;28;19930;-62
2022/10/19 02:37:16;;;;;;;;;;;20.60;99.90;;;;;;4967334;28;20461;-63
2022/10/19 02:39:48;;;;;;;;;;;20.60;99.90;;;;;;4957477;28;19937;-63
2022/10/19 02:42:17;;;;;;;;;;;20.60;99.90;;;;;;4956005;28;19934;-63
2022/10/19 02:44:52;;;;;;;;;;;20.60;99.90;;;;;;4959283;28;19937;-61
2022/10/19 02:47:39;;;;;;;;;;;20.60;99.90;;;;;;4956690;28;19931;-62
2022/10/19 02:50:07;;;;;;;;;;;20.60;99.90;;;;;;4958604;28;19927;-62
2022/10/19 02:52:37;;;;;;;;;;;20.60;99.90;;;;;;4955510;28;19934;-60
2022/10/19 02:55:05;;;;;;;;;;;20.60;99.90;;;;;;4949237;28;19931;-61
2022/10/19 02:57:32;;;;;;;;;;;20.60;99.90;;;;;;4967739;28;19953;-63
2022/10/19 03:00:00;;;;;;;;;;;20.60;99.90;;;;;;4963746;28;19950;-61
2022/10/19 03:02:27;;;;;;;;;;;20.60;99.90;;;;;;4965419;28;19941;-62
2022/10/19 03:04:54;;;;;;;;;;;20.60;99.90;;;;;;4955696;28;19946;-59
2022/10/19 03:07:21;;;;;;;;;;;20.60;99.90;;;;;;4974644;28;19934;-63
2022/10/19 03:09:49;;;;;;;;;;;20.60;99.90;;;;;;4957013;28;19930;-61
2022/10/19 03:12:16;;;;;;;;;;;20.60;99.90;;;;;;4960215;28;19937;-61
2022/10/19 03:14:43;;;;;;;;;;;20.60;99.90;;;;;;4968002;28;19937;-62
2022/10/19 03:17:10;;;;;;;;;;;20.60;99.90;;;;;;4962303;28;19930;-63
2022/10/19 03:19:38;;;;;;;;;;;20.60;99.90;;;;;;4973489;28;19941;-62
2022/10/19 03:22:05;;;;;;;;;;;20.50;99.90;;;;;;4958803;28;19927;-60
2022/10/19 03:24:32;;;;;;;;;;;20.60;99.90;;;;;;4962575;28;19937;-60
2022/10/19 03:27:00;;;;;;;;;;;20.60;99.90;;;;;;4976243;28;19934;-62
2022/10/19 03:29:27;;;;;;;;;;;20.50;99.90;;;;;;4963596;28;19934;-62
2022/10/19 03:31:54;;;;;;;;;;;20.50;99.90;;;;;;4957687;28;19931;-59
2022/10/19 03:34:21;;;;;;;;;;;20.50;99.90;;;;;;4957588;28;19933;-61
2022/10/19 03:36:48;;;;;;;;;;;20.50;99.90;;;;;;4973673;28;19937;-61
2022/10/19 03:39:16;;;;;;;;;;;20.50;99.90;;;;;;4956746;28;20128;-62
2022/10/19 03:41:43;;;;;;;;;;;20.50;99.90;;;;;;4951345;28;19930;-63
2022/10/19 03:44:10;;;;;;;;;;;20.50;99.90;;;;;;4945761;28;19931;-61
2022/10/19 03:46:38;;;;;;;;;;;20.50;99.90;;;;;;4966070;28;19930;-63
2022/10/19 03:49:05;;;;;;;;;;;20.50;99.90;;;;;;4953922;28;19930;-63
2022/10/19 03:51:32;;;;;;;;;;;20.50;99.90;;;;;;4948272;28;19930;-62
2022/10/19 03:54:00;;;;;;;;;;;20.50;99.90;;;;;;4959192;28;19930;-62
2022/10/19 03:56:28;;;;;;;;;;;20.50;99.90;;;;;;4956575;28;19934;-58
2022/10/19 03:58:56;;;;;;;;;;;20.50;99.90;;;;;;4955371;28;19930;-62
2022/10/19 04:01:25;;;;;;;;;;;20.50;99.90;;;;;;4953891;28;19930;-60
2022/10/19 04:03:56;;;;;;;;;;;20.60;99.90;;;;;;4955202;28;19938;-59
2022/10/19 04:06:24;;;;;;;;;;;20.60;99.90;;;;;;4959009;28;19930;-61
2022/10/19 04:08:52;;;;;;;;;;;20.60;99.90;;;;;;4944016;28;19926;-61
2022/10/19 04:11:21;;;;;;;;;;;20.60;99.90;;;;;;4959833;28;19930;-61
2022/10/19 04:13:51;;;;;;;;;;;20.60;99.90;;;;;;4957536;28;19930;-60
2022/10/19 04:16:19;;;;;;;;;;;20.60;99.90;;;;;;4961627;28;19938;-63
2022/10/19 04:18:46;;;;;;;;;;;20.60;99.90;;;;;;4953214;28;20314;-60
2022/10/19 04:21:33;;;;;;;;;;;20.60;99.90;;;;;;4961309;28;19930;-60
2022/10/19 04:24:03;;;;;;;;;;;20.60;99.90;;;;;;4966016;28;20449;-62
2022/10/19 04:26:30;;;;;;;;;;;20.60;99.90;;;;;;4965106;28;19926;-61
2022/10/19 04:28:58;;;;;;;;;;;20.60;99.90;;;;;;4956526;28;19949;-62
2022/10/19 04:31:26;;;;;;;;;;;20.70;99.90;;;;;;4956406;28;19934;-60
2022/10/19 04:33:53;;;;;;;;;;;20.60;99.90;;;;;;4967661;28;19937;-61
2022/10/19 04:36:20;;;;;;;;;;;20.70;99.90;;;;;;4956201;28;19960;-62
2022/10/19 04:38:47;;;;;;;;;;;20.70;99.90;;;;;;4959157;28;19926;-61
2022/10/19 04:41:15;;;;;;;;;;;20.70;99.90;;;;;;4957639;28;19930;-62
2022/10/19 04:43:44;;;;;;;;;;;20.70;99.90;;;;;;4965358;28;19938;-61
2022/10/19 04:46:12;;;;;;;;;;;20.70;99.90;;;;;;4955432;28;19941;-60
2022/10/19 04:48:40;;;;;;;;;;;20.70;99.90;;;;;;4960351;28;19926;-58
2022/10/19 04:51:07;;;;;;;;;;;20.70;99.90;;;;;;4964180;28;19926;-60
2022/10/19 04:53:35;;;;;;;;;;;20.70;99.90;;;;;;4952326;28;19938;-59
2022/10/19 04:56:03;;;;;;;;;;;20.70;99.90;;;;;;4959669;28;20222;-61
2022/10/19 04:58:30;;;;;;;;;;;20.70;99.90;;;;;;4964019;28;20306;-61
2022/10/19 05:00:57;;;;;;;;;;;20.70;99.90;;;;;;4953909;28;19933;-61
2022/10/19 05:03:25;;;;;;;;;;;20.70;99.90;;;;;;4959715;28;19946;-60
2022/10/19 05:05:52;;;;;;;;;;;20.70;99.90;;;;;;4948111;28;20417;-62
2022/10/19 05:08:19;;;;;;;;;;;20.70;99.90;;;;;;4983837;28;19937;-61
2022/10/19 05:10:46;;;;;;;;;;;20.70;99.90;;;;;;4971339;28;20461;-61
2022/10/19 05:13:13;;;;;;;;;;;20.70;99.90;;;;;;4964399;28;19930;-56
2022/10/19 05:15:41;;;;;;;;;;;20.60;99.90;;;;;;4950492;28;20444;-60
2022/10/19 05:18:08;;;;;;;;;;;20.70;99.90;;;;;;4956713;28;19930;-63
2022/10/19 05:20:35;;;;;;;;;;;20.70;99.90;;;;;;4964097;28;19934;-61
2022/10/19 05:23:02;;;;;;;;;;;20.70;99.90;;;;;;4961779;28;19934;-62
2022/10/19 05:25:33;;;;;;;;;;;20.70;99.90;;;;;;4948875;28;19930;-62
2022/10/19 05:28:00;;;;;;;;;;;20.60;99.90;;;;;;4969918;28;19926;-62
2022/10/19 05:30:27;;;;;;;;;;;20.70;99.90;;;;;;4962194;28;19949;-61
2022/10/19 05:32:54;;;;;;;;;;;20.70;99.90;;;;;;4960425;28;19934;-59
2022/10/19 05:35:21;;;;;;;;;;;20.70;99.90;;;;;;4961785;28;19927;-62
2022/10/19 05:37:52;;;;;;;;;;;20.70;99.90;;;;;;4965501;28;19930;-63
2022/10/19 05:40:20;;;;;;;;;;;20.70;99.90;;;;;;4956755;28;20360;-62
2022/10/19 05:42:47;;;;;;;;;;;20.70;99.90;;;;;;4968212;28;19930;-62
2022/10/19 05:45:14;;;;;;;;;;;20.70;99.90;;;;;;4952928;28;20371;-61
2022/10/19 05:47:41;;;;;;;;;;;20.70;99.90;;;;;;4969782;28;19926;-61
2022/10/19 05:50:08;;;;;;;;;;;20.70;99.90;;;;;;4963931;28;19938;-61
2022/10/19 05:52:35;;;;;;;;;;;20.70;99.90;;;;;;4949336;28;19930;-61
2022/10/19 05:55:02;;;;;;;;;;;20.70;99.90;;;;;;4981819;28;19934;-62
2022/10/19 05:57:30;;;;;;;;;;;20.70;99.90;;;;;;4967889;28;19926;-63
2022/10/19 05:59:58;;;;;;;;;;;20.70;99.90;;;;;;4960355;28;19937;-62
2022/10/19 06:02:25;;;;;;;;;;;20.60;99.90;;;;;;4956527;28;19930;-61
2022/10/19 06:04:52;;;;;;;;;;;20.60;99.90;;;;;;4953384;28;19930;-61
2022/10/19 06:07:19;;;;;;;;;;;20.60;99.90;;;;;;4967194;28;19930;-62
2022/10/19 06:09:46;;;;;;;;;;;20.60;99.90;;;;;;4971006;28;19930;-60
2022/10/19 06:12:13;;;;;;;;;;;20.60;99.90;;;;;;4967178;28;19937;-61
2022/10/19 06:14:42;;;;;;;;;;;20.60;99.90;;;;;;4950818;28;20390;-63
2022/10/19 06:17:09;;;;;;;;;;;20.60;99.90;;;;;;4976528;28;19933;-56
2022/10/19 06:19:37;;;;;;;;;;;20.60;99.90;;;;;;4963472;28;20071;-62
2022/10/19 06:22:04;;;;;;;;;;;20.60;99.90;;;;;;4952710;28;20230;-62
2022/10/19 06:24:31;;;;;;;;;;;20.60;99.90;;;;;;4965052;28;19937;-60
2022/10/19 06:26:58;;;;;;;;;;;20.60;99.90;;;;;;4958118;28;19930;-63
2022/10/19 06:29:25;;;;;;;;;;;20.60;99.90;;;;;;4965301;28;19937;-62
2022/10/19 06:31:53;;;;;;;;;;;20.60;99.90;;;;;;4965077;28;19937;-61
2022/10/19 06:34:20;;;;;;;;;;;20.60;99.90;;;;;;4978856;28;20410;-62
2022/10/19 06:36:47;;;;;;;;;;;20.60;99.90;;;;;;4954015;28;19927;-62
2022/10/19 06:39:14;;;;;;;;;;;20.60;99.90;;;;;;4957343;28;19926;-59
2022/10/19 06:41:41;;;;;;;;;;;20.60;99.90;;;;;;4980926;28;20313;-62
2022/10/19 06:44:18;;;;;;;;;;;20.60;99.90;;;;;;4983688;28;19930;-63
2022/10/19 06:46:45;;;;;;;;;;;20.60;99.90;;;;;;4969962;28;19948;-60
2022/10/19 06:49:12;;;;;;;;;;;20.60;99.90;;;;;;4961934;28;19931;-63
2022/10/19 06:51:39;;;;;;;;;;;20.60;99.90;;;;;;4961370;28;19926;-62
2022/10/19 06:54:07;;;;;;;;;;;20.60;99.90;;;;;;4963166;28;19930;-60
2022/10/19 06:56:34;;;;;;;;;;;20.60;99.90;;;;;;4951527;28;19937;-59
2022/10/19 06:59:01;;;;;;;;;;;20.60;99.90;;;;;;4952895;28;19933;-62
2022/10/19 07:01:28;;;;;;;;;;;20.60;99.90;;;;;;4948765;28;20500;-61
2022/10/19 07:03:56;;;;;;;;;;;20.60;99.90;;;;;;4972587;28;20461;-60
2022/10/19 07:06:25;;;;;;;;;;;20.60;99.90;;;;;;4959822;28;20292;-60
2022/10/19 07:08:52;;;;;;;;;;;20.60;99.90;;;;;;4968749;28;20322;-60
2022/10/19 07:11:21;;;;;;;;;;;20.60;99.90;;;;;;4959476;28;19931;-59
2022/10/19 07:13:48;;;;;;;;;;;20.60;99.90;;;;;;4954322;28;20311;-62
2022/10/19 07:16:16;;;;;;;;;;;20.60;99.90;;;;;;4946936;28;19934;-61
2022/10/19 07:18:48;;;;;;;;;;;20.60;99.90;;;;;;4955436;28;20390;-61
2022/10/19 07:21:15;;;;;;;;;;;20.60;99.90;;;;;;4962086;28;20394;-62
2022/10/19 07:23:43;;;;;;;;;;;20.60;99.90;;;;;;4962761;28;19948;-61
2022/10/19 07:26:12;;;;;;;;;;;20.60;99.90;;;;;;4963042;28;19937;-66
2022/10/19 07:28:39;;;;;;;;;;;20.60;99.90;;;;;;4966381;28;19930;-56
2022/10/19 07:31:08;;;;;;;;;;;20.60;99.90;;;;;;4951674;28;20452;-59
2022/10/19 07:33:36;;;;;;;;;;;20.60;99.90;;;;;;4962083;28;20437;-61
2022/10/19 07:36:04;;;;;;;;;;;20.60;99.90;;;;;;4953601;28;19938;-61
2022/10/19 07:38:32;;;;;;;;;;;20.60;99.90;;;;;;4965475;28;19930;-57
2022/10/19 07:41:06;;;;;;;;;;;20.60;99.90;;;;;;5025635;22;19940;-66
2022/10/19 07:43:33;;;;;;;;;;;20.60;99.90;;;;;;5040681;28;19929;-65
2022/10/19 07:46:01;;;;;;;;;;;20.60;99.90;;;;;;5038639;28;19925;-66
2022/10/19 07:48:28;;;;;;;;;;;20.60;99.90;;;;;;5027414;28;19936;-65
2022/10/19 07:50:55;;;;;;;;;;;20.60;99.90;;;;;;5033791;28;20393;-65
2022/10/19 07:53:23;;;;;;;;;;;20.60;99.90;;;;;;5045320;28;19933;-67
2022/10/19 07:55:50;;;;;;;;;;;20.60;99.90;;;;;;5033445;28;19925;-66
2022/10/19 07:58:17;;;;;;;;;;;20.70;99.90;;;;;;5037564;28;19925;-65
2022/10/19 08:00:44;;;;;;;;;;;20.60;99.90;;;;;;5030766;28;20021;-67
2022/10/19 08:03:11;;;;;;;;;;;20.60;99.90;;;;;;5029431;28;19925;-66
2022/10/19 08:06:08;;;;;;;;;;;20.60;99.90;;;;;;5037571;28;19929;-66
2022/10/19 08:08:36;;;;;;;;;;;20.60;99.90;;;;;;5031638;28;19925;-61
2022/10/19 08:11:10;;;;;;;;;;;20.60;99.90;;;;;;5026726;28;19952;-65
2022/10/19 08:13:38;;;;;;;;;;;20.60;99.90;;;;;;5019351;28;19929;-65
2022/10/19 08:16:18;;;;;;;;;;;20.60;99.90;;;;;;5035468;28;19925;-66
2022/10/19 08:18:45;;;;;;;;;;;20.60;99.90;;;;;;5025315;28;19936;-68
2022/10/19 08:21:13;;;;;;;;;;;20.60;99.90;;;;;;5025979;28;20364;-68
2022/10/19 08:23:40;;;;;;;;;;;20.60;99.90;;;;;;5035507;28;19929;-67
2022/10/19 08:26:07;;;;;;;;;;;20.60;99.90;;;;;;5024782;28;19929;-68
2022/10/19 08:28:34;;;;;;;;;;;20.60;99.90;;;;;;5031916;28;19928;-68
2022/10/19 08:31:18;;;;;;;;;;;20.60;99.90;;;;;;5014557;28;19937;-66
2022/10/19 08:33:47;;;;;;;;;;;20.60;99.90;;;;;;5019341;28;19929;-67
2022/10/19 08:36:14;;;;;;;;;;;20.60;99.90;;;;;;5022200;28;19929;-67
2022/10/19 08:38:43;;;;;;;;;;;20.60;99.90;;;;;;5026002;28;19932;-67
2022/10/19 08:41:25;;;;;;;;;;;20.60;99.90;;;;;;5028517;28;19934;-72
2022/10/19 08:44:11;;;;;;;;;;;20.60;99.90;;;;;;5040573;28;19929;-71
2022/10/19 08:46:43;;;;;;;;;;;20.60;99.90;;;;;;5037944;28;19935;-66
2022/10/19 08:49:14;;;;;;;;;;;20.60;99.90;;;;;;5029192;28;19929;-70
2022/10/19 08:51:41;;;;;;;;;;;20.60;99.90;;;;;;5036891;28;19933;-72
2022/10/19 08:54:13;;;;;;;;;;;20.60;99.90;;;;;;5030028;28;19929;-77
2022/10/19 08:56:48;;;;;;;;;;;20.60;99.90;;;;;;5036884;28;19929;-69
2022/10/19 08:59:39;;;;;;;;;;;20.70;99.90;;;;;;5031687;28;19936;-67
2022/10/19 09:02:13;;;;;;;;;;;20.60;99.90;;;;;;5034274;28;19932;-72
2022/10/19 09:04:41;;;;;;;;;;;20.70;99.90;;;;;;5033762;28;19929;-78
2022/10/19 09:07:22;;;;;;;;;;;20.60;99.90;;;;;;5040028;28;19929;-68
2022/10/19 09:09:58;;;;;;;;;;;20.60;99.90;;;;;;5029138;28;19929;-72
2022/10/19 09:12:44;;;;;;;;;;;20.60;99.90;;;;;;5044339;28;19928;-66
2022/10/19 09:15:12;;;;;;;;;;;20.70;99.90;;;;;;5032114;28;19944;-66
2022/10/19 09:17:39;;;;;;;;;;;20.70;99.90;;;;;;5034553;28;19936;-67
2022/10/19 09:20:13;;;;;;;;;;;20.70;99.90;;;;;;5038527;28;19929;-65
2022/10/19 09:22:42;;;;;;;;;;;20.70;99.90;;;;;;5029446;28;20304;-67
2022/10/19 09:25:09;;;;;;;;;;;20.70;99.90;;;;;;5036950;28;20284;-63
2022/10/19 09:27:38;;;;;;;;;;;20.60;99.90;;;;;;5031243;28;19936;-67
2022/10/19 09:30:19;;;;;;;;;;;20.70;99.90;;;;;;5035896;28;20296;-64
2022/10/19 09:32:47;;;;;;;;;;;20.70;99.90;;;;;;5014725;28;19929;-67
2022/10/19 09:35:23;;;;;;;;;;;20.70;99.90;;;;;;5031810;28;19940;-66
2022/10/19 09:37:50;;;;;;;;;;;20.70;99.90;;;;;;5029278;28;19932;-66
2022/10/19 09:40:22;;;;;;;;;;;20.70;99.90;;;;;;5023867;28;19925;-63
2022/10/19 09:43:02;;;;;;;;;;;20.70;99.90;;;;;;5037040;28;20356;-66
2022/10/19 09:45:46;;;;;;;;;;;20.70;99.90;;;;;;5028566;28;19925;-66
2022/10/19 09:48:16;;;;;;;;;;;20.70;99.90;;;;;;5033653;28;19936;-66
2022/10/19 09:50:44;;;;;;;;;;;20.70;99.90;;;;;;5040172;28;19932;-67
2022/10/19 09:53:17;;;;;;;;;;;20.70;99.90;;;;;;5034570;28;19936;-66
2022/10/19 09:55:46;;;;;;;;;;;20.60;99.90;;;;;;5036306;28;19929;-66
2022/10/19 09:58:19;;;;;;;;;;;20.70;99.90;;;;;;5041885;28;19929;-66
2022/10/19 10:00:49;;;;;;;;;;;20.70;99.90;;;;;;5028103;28;19929;-65
2022/10/19 10:03:26;;;;;;;;;;;20.60;99.90;;;;;;5032994;28;19929;-66
2022/10/19 10:05:55;;;;;;;;;;;20.70;99.90;;;;;;5030277;28;19948;-65
2022/10/19 10:08:24;;;;;;;;;;;20.60;99.90;;;;;;5027886;28;19928;-73
2022/10/19 10:10:55;;;;;;;;;;;20.70;99.90;;;;;;5023956;28;20304;-63
2022/10/19 10:13:23;;;;;;;;;;;20.70;99.90;;;;;;5018157;28;19936;-67
2022/10/19 10:15:54;;;;;;;;;;;20.70;99.90;;;;;;5022901;28;19932;-66
2022/10/19 10:18:22;;;;;;;;;;;20.70;99.90;;;;;;5030271;28;20380;-67
2022/10/19 10:21:00;;;;;;;;;;;20.70;99.90;;;;;;5025670;28;19929;-68
2022/10/19 10:23:30;;;;;;;;;;;20.70;99.90;;;;;;5030773;28;20919;-67
2022/10/19 10:25:58;;;;;;;;;;;20.70;99.90;;;;;;5027559;28;19925;-67
2022/10/19 10:28:26;;;;;;;;;;;20.70;99.90;;;;;;5028638;28;19929;-63
2022/10/19 10:31:06;;;;;;;;;;;20.70;99.90;;;;;;5036643;28;19936;-67
2022/10/19 10:33:36;;;;;;;;;;;20.70;99.90;;;;;;5030277;28;19929;-69
2022/10/19 10:36:11;;;;;;;;;;;20.70;99.90;;;;;;5025458;28;19936;-67
2022/10/19 10:38:45;;;;;;;;;;;20.70;99.90;;;;;;5037607;28;19936;-66
2022/10/19 10:41:16;;;;;;;;;;;20.70;99.90;;;;;;5026606;28;20369;-69
2022/10/19 10:43:49;;;;;;;;;;;20.70;99.90;;;;;;5031284;28;19933;-67
2022/10/19 10:46:20;;;;;;;;;;;20.70;99.90;;;;;;5025314;28;19952;-65
2022/10/19 10:49:07;;;;;;;;;;;20.70;99.90;;;;;;5031168;28;20231;-66
2022/10/19 10:51:38;;;;;;;;;;;20.70;99.90;;;;;;5028839;28;20420;-66
2022/10/19 10:54:09;;;;;;;;;;;20.70;99.90;;;;;;5031396;28;19925;-65
2022/10/19 10:56:39;;;;;;;;;;;20.70;99.90;;;;;;5025622;28;20387;-65
2022/10/19 10:59:15;;;;;;;;;;;20.70;99.90;;;;;;5032251;28;20251;-66
2022/10/19 11:01:54;;;;;;;;;;;20.70;99.90;;;;;;5029596;28;19926;-67
2022/10/19 11:04:23;;;;;;;;;;;20.70;99.90;;;;;;5033084;28;19925;-67
2022/10/19 11:06:55;;;;;;;;;;;20.70;99.90;;;;;;5030013;28;19936;-67
2022/10/19 11:09:28;;;;;;;;;;;20.70;99.90;;;;;;5035599;28;19929;-67
2022/10/19 11:11:56;;;;;;;;;;;20.70;99.90;;;;;;5031547;28;19940;-66
2022/10/19 11:14:26;;;;;;;;;;;20.70;99.90;;;;;;5029305;28;19944;-65
2022/10/19 11:16:55;;;;;;;;;;;20.70;99.90;;;;;;5027594;28;19929;-66
2022/10/19 11:19:28;;;;;;;;;;;20.70;99.90;;;;;;5037148;28;19932;-66
2022/10/19 11:21:59;;;;;;;;;;;20.70;99.90;;;;;;5061014;28;20024;-65
2022/10/19 11:24:26;;;;;;;;;;;20.70;99.90;;;;;;5051319;28;19933;-64
2022/10/19 11:27:09;;;;;;;;;;;20.70;99.90;;;;;;5051675;28;19932;-66
2022/10/19 11:29:45;;;;;;;;;;;20.70;99.90;;;;;;5039296;28;19925;-64
2022/10/19 11:32:20;;;;;;;;;;;20.70;99.90;;;;;;5035939;28;19936;-66
2022/10/19 11:34:50;;;;;;;;;;;20.70;99.90;;;;;;5024970;28;19926;-66
2022/10/19 11:37:17;;;;;;;;;;;20.70;99.90;;;;;;5032813;28;20230;-63
2022/10/19 11:39:56;;;;;;;;;;;20.70;99.90;;;;;;5027550;28;19929;-66
2022/10/19 11:42:26;;;;;;;;;;;20.70;99.90;;;;;;5022403;28;19929;-66
2022/10/19 11:45:01;;;;;;;;;;;20.70;99.90;;;;;;5020430;28;19929;-67
2022/10/19 11:47:32;;;;;;;;;;;20.70;99.90;;;;;;5014280;28;19940;-64
2022/10/19 11:50:19;;;;;;;;;;;20.70;99.90;;;;;;5019254;28;19926;-66
2022/10/19 11:52:46;;;;;;;;;;;20.70;99.90;;;;;;5029130;28;19929;-67
2022/10/19 11:55:16;;;;;;;;;;;20.70;99.90;;;;;;5021255;28;19952;-64
2022/10/19 11:57:49;;;;;;;;;;;20.70;99.90;;;;;;5038650;28;19933;-65
2022/10/19 12:00:19;;;;;;;;;;;20.70;99.90;;;;;;5029822;28;19929;-65
2022/10/19 12:03:13;;;;;;;;;;;20.70;99.90;;;;;;5030589;28;19981;-65
2022/10/19 12:05:45;;;;;;;;;;;20.70;99.90;;;;;;5020799;28;19935;-65
2022/10/19 12:08:24;;;;;;;;;;;20.70;99.90;;;;;;5025153;28;20332;-65
2022/10/19 12:11:24;;;;;;;;;;;20.70;99.90;;;;;;5030369;28;19932;-65
2022/10/19 12:13:58;;;;;;;;;;;20.70;99.90;;;;;;5009201;28;19936;-62
2022/10/19 12:16:32;;;;;;;;;;;20.70;99.90;;;;;;5029668;28;19936;-61
2022/10/19 12:19:01;;;;;;;;;;;20.70;99.90;;;;;;5024780;28;19929;-65
2022/10/19 12:21:38;;;;;;;;;;;20.70;99.90;;;;;;5025412;28;19964;-64
2022/10/19 12:24:11;;;;;;;;;;;20.70;99.90;;;;;;5023218;28;19933;-63
2022/10/19 12:26:39;;;;;;;;;;;20.70;99.90;;;;;;5028563;28;19928;-65
2022/10/19 12:29:11;;;;;;;;;;;20.70;99.90;;;;;;5026270;28;20381;-63
2022/10/19 12:31:38;;;;;;;;;;;20.70;99.90;;;;;;5020722;28;19929;-64
2022/10/19 12:34:29;;;;;;;;;;;20.70;99.90;;;;;;5018949;28;19926;-64
2022/10/19 12:37:08;;;;;;;;;;;20.70;99.90;;;;;;5021605;28;19926;-63
2022/10/19 12:39:39;;;;;;;;;;;20.70;99.90;;;;;;5029874;28;19941;-64
2022/10/19 12:42:23;;;;;;;;;;;20.70;99.90;;;;;;5021984;28;19936;-64
2022/10/19 12:44:59;;;;;;;;;;;20.70;99.90;;;;;;5043089;28;19933;-63
2022/10/19 12:47:26;;;;;;;;;;;20.70;99.90;;;;;;5025058;28;19933;-65
2022/10/19 12:49:54;;;;;;;;;;;20.70;99.90;;;;;;5037817;28;19929;-64
2022/10/19 12:52:40;;;;;;;;;;;20.70;99.90;;;;;;5029896;28;19925;-66
2022/10/19 12:55:11;;;;;;;;;;;20.70;99.90;;;;;;5033936;28;19936;-64
2022/10/19 12:57:39;;;;;;;;;;;20.70;99.90;;;;;;5036280;28;19944;-66
2022/10/19 13:00:24;;;;;;;;;;;20.70;99.90;;;;;;5028994;28;19925;-66
2022/10/19 13:02:56;;;;;;;;;;;20.70;99.90;;;;;;5025315;28;19925;-65
2022/10/19 13:05:24;;;;;;;;;;;20.70;99.90;;;;;;5022618;28;20325;-65
2022/10/19 13:07:52;;;;;;;;;;;20.70;99.90;;;;;;5034906;28;19930;-64
2022/10/19 13:10:21;;;;;;;;;;;20.70;99.90;;;;;;5027334;28;19929;-64
2022/10/19 13:12:49;;;;;;;;;;;20.70;99.90;;;;;;5039072;28;19929;-64
2022/10/19 13:15:34;;;;;;;;;;;20.70;99.90;;;;;;5034295;28;19930;-65
2022/10/19 13:18:11;;;;;;;;;;;20.70;99.90;;;;;;5024314;28;20412;-64
2022/10/19 13:20:38;;;;;;;;;;;20.70;99.90;;;;;;5023696;28;20602;-65
2022/10/19 13:23:06;;;;;;;;;;;20.70;99.90;;;;;;5038181;28;19925;-67
2022/10/19 13:25:33;;;;;;;;;;;20.70;99.90;;;;;;5029824;28;19929;-64
2022/10/19 13:28:13;;;;;;;;;;;20.70;99.90;;;;;;5035812;28;20316;-65
2022/10/19 13:30:41;;;;;;;;;;;20.70;99.90;;;;;;5019104;28;19925;-65
2022/10/19 13:33:33;;;;;;;;;;;20.70;99.90;;;;;;5039218;28;19937;-67
2022/10/19 13:36:01;;;;;;;;;;;20.70;99.90;;;;;;5025158;28;20313;-65
2022/10/19 13:38:32;;;;;;;;;;;20.70;99.90;;;;;;5037071;28;20499;-65
2022/10/19 13:41:08;;;;;;;;;;;20.60;99.90;;;;;;5028255;28;19932;-64
2022/10/19 13:43:50;;;;;;;;;;;20.70;99.90;;;;;;5028689;28;19928;-65
2022/10/19 13:46:19;;;;;;;;;;;20.70;99.90;;;;;;5031397;28;19933;-66
2022/10/19 13:48:46;;;;;;;;;;;20.70;99.90;;;;;;5028255;28;19936;-64
2022/10/19 13:51:32;;;;;;;;;;;20.70;99.90;;;;;;5038248;28;20388;-66
2022/10/19 13:54:24;;;;;;;;;;;20.70;99.90;;;;;;5037091;28;19925;-67
2022/10/19 13:56:54;;;;;;;;;;;20.70;99.90;;;;;;5036446;28;19924;-66
2022/10/19 13:59:36;;;;;;;;;;;20.70;99.90;;;;;;5034420;28;20290;-66
2022/10/19 14:02:22;;;;;;;;;;;20.70;99.90;;;;;;5038024;28;20311;-64
2022/10/19 14:05:08;;;;;;;;;;;20.60;99.90;;;;;;5035976;28;19929;-66
2022/10/19 14:07:54;;;;;;;;;;;20.70;99.90;;;;;;5031756;28;19928;-67
2022/10/19 14:10:22;;;;;;;;;;;20.70;99.90;;;;;;5028558;28;19929;-67
2022/10/19 14:12:59;;;;;;;;;;;20.70;99.90;;;;;;5030341;28;20301;-64
2022/10/19 14:15:28;;;;;;;;;;;20.70;99.90;;;;;;5037357;28;19929;-62
2022/10/19 14:17:55;;;;;;;;;;;20.70;99.90;;;;;;5034419;28;19929;-63
2022/10/19 14:20:36;;;;;;;;;;;20.70;99.90;;;;;;5036096;28;19935;-64
2022/10/19 14:23:21;;;;;;;;;;;20.60;99.90;;;;;;5029339;28;19929;-64
2022/10/19 14:25:50;;;;;;;;;;;20.70;99.90;;;;;;5026898;28;19929;-62
2022/10/19 14:28:17;;;;;;;;;;;20.70;99.90;;;;;;5041786;28;19925;-63
2022/10/19 14:30:52;;;;;;;;;;;20.70;99.90;;;;;;5037451;28;19936;-65
2022/10/19 14:33:19;;;;;;;;;;;20.70;99.90;;;;;;5040204;28;19936;-65
2022/10/19 14:35:48;;;;;;;;;;;20.70;99.90;;;;;;5046329;28;19952;-64